createdAt,value
2022-12-25T00:01:44.352Z,100632.13
2022-12-25T00:04:51.054Z,100632.36
2022-12-25T00:08:00.493Z,100631.14
2022-12-25T00:11:10.266Z,100630.16
2022-12-25T00:14:20.033Z,100635.63
2022-12-25T00:17:27.121Z,100633.59
2022-12-25T00:20:34.206Z,100632.12
2022-12-25T00:23:41.396Z,100627.77
2022-12-25T00:26:48.179Z,100629.86
2022-12-25T00:29:57.398Z,100635.91
2022-12-25T00:33:06.445Z,100638.95
2022-12-25T00:36:18.157Z,100636.38
2022-12-25T00:39:25.066Z,100636.78
2022-12-25T00:42:31.849Z,100637.08
2022-12-25T00:45:38.635Z,100637.98
2022-12-25T00:48:48.719Z,100640.60
2022-12-25T00:51:55.666Z,100641.30
2022-12-25T00:55:02.476Z,100635.81
2022-12-25T00:58:09.483Z,100646.08
2022-12-25T01:01:16.322Z,100650.08
2022-12-25T01:04:23.278Z,100656.82
2022-12-25T01:07:30.103Z,100654.43
2022-12-25T01:10:37.201Z,100654.84
2022-12-25T01:13:44.081Z,100657.96
2022-12-25T01:16:50.999Z,100660.23
2022-12-25T01:19:57.830Z,100670.05
2022-12-25T01:23:04.481Z,100668.98
2022-12-25T01:26:13.876Z,100668.95
2022-12-25T01:29:20.545Z,100672.70
2022-12-25T01:32:27.361Z,100674.46
2022-12-25T01:35:35.129Z,100675.64
2022-12-25T01:38:41.936Z,100676.93
2022-12-25T01:41:49.239Z,100684.03
2022-12-25T01:45:38.499Z,100686.85
2022-12-25T01:48:43.944Z,100685.52
2022-12-25T01:51:55.514Z,100681.08
2022-12-25T01:55:04.992Z,100686.45
2022-12-25T01:58:13.289Z,100695.97
2022-12-25T02:01:20.217Z,100706.52
2022-12-25T02:04:38.966Z,100710.34
2022-12-25T02:07:48.098Z,100702.35
2022-12-25T02:10:54.733Z,100697.88
2022-12-25T02:14:02.034Z,100696.44
2022-12-25T02:17:19.321Z,100696.44
2022-12-25T02:20:57.279Z,100697.95
2022-12-25T02:24:27.707Z,100700.26
2022-12-25T02:28:06.835Z,100707.30
2022-12-25T02:31:21.813Z,100708.75
2022-12-25T02:34:37.374Z,100705.96
2022-12-25T02:37:49.731Z,100711.19
2022-12-25T02:41:00.817Z,100706.50
2022-12-25T02:44:32.492Z,100708.42
2022-12-25T02:47:57.847Z,100709.83
2022-12-25T02:51:27.145Z,100710.42
2022-12-25T02:54:55.072Z,100707.69
2022-12-25T02:58:26.105Z,100703.55
2022-12-25T03:01:53.421Z,100711.05
2022-12-25T03:05:20.109Z,100721.48
2022-12-25T03:08:34.982Z,100721.69
2022-12-25T03:11:41.956Z,100724.13
2022-12-25T03:15:09.718Z,100722.85
2022-12-25T03:18:22.381Z,100725.66
2022-12-25T03:21:47.664Z,100723.80
2022-12-25T03:25:12.698Z,100727.25
2022-12-25T03:28:19.526Z,100723.67
2022-12-25T03:31:35.048Z,100717.77
2022-12-25T03:35:06.497Z,100721.30
2022-12-25T03:38:46.959Z,100724.89
2022-12-25T03:42:17.172Z,100728.14
2022-12-25T03:45:47.841Z,100728.88
2022-12-25T03:49:21.659Z,100727.19
2022-12-25T03:52:48.558Z,100729.41
2022-12-25T03:56:13.939Z,100725.20
2022-12-25T03:59:41.348Z,100731.03
2022-12-25T04:03:05.848Z,100729.27
2022-12-25T04:06:30.132Z,100737.09
2022-12-25T04:09:54.445Z,100741.02
2022-12-25T04:13:19.006Z,100735.41
2022-12-25T04:16:43.372Z,100736.85
2022-12-25T04:20:08.065Z,100750.66
2022-12-25T04:23:32.125Z,100759.38
2022-12-25T04:26:56.711Z,100762.73
2022-12-25T04:30:21.251Z,100759.80
2022-12-25T04:33:45.320Z,100759.77
2022-12-25T04:36:52.103Z,100757.36
2022-12-25T04:39:58.882Z,100758.84
2022-12-25T04:43:06.574Z,100766.63
2022-12-25T04:46:13.376Z,100769.39
2022-12-25T04:49:20.031Z,100771.45
2022-12-25T04:52:26.882Z,100771.08
2022-12-25T04:55:33.786Z,100784.66
2022-12-25T04:58:40.711Z,100786.50
2022-12-25T05:01:47.596Z,100788.90
2022-12-25T05:04:54.501Z,100786.08
2022-12-25T05:08:01.229Z,100786.46
2022-12-25T05:11:14.549Z,100787.68
2022-12-25T05:14:21.454Z,100784.52
2022-12-25T05:17:28.287Z,100785.46
2022-12-25T05:20:39.973Z,100790.80
2022-12-25T05:23:50.273Z,100788.46
2022-12-25T05:26:58.318Z,100783.63
2022-12-25T05:30:05.448Z,100791.37
2022-12-25T05:33:12.268Z,100795.81
2022-12-25T05:36:19.549Z,100806.65
2022-12-25T05:39:26.406Z,100816.39
2022-12-25T05:42:33.201Z,100818.95
2022-12-25T05:45:40.005Z,100829.73
2022-12-25T05:48:47.428Z,100834.49
2022-12-25T05:51:55.027Z,100845.04
2022-12-25T05:55:02.339Z,100855.27
2022-12-25T05:58:09.711Z,100853.43
2022-12-25T06:01:19.331Z,100856.02
2022-12-25T06:04:26.713Z,100862.50
2022-12-25T06:07:33.564Z,100861.75
2022-12-25T06:10:40.272Z,100866.27
2022-12-25T06:13:50.368Z,100868.02
2022-12-25T06:16:57.244Z,100872.19
2022-12-25T06:20:04.226Z,100880.02
2022-12-25T06:23:11.400Z,100884.89
2022-12-25T06:26:20.774Z,100888.07
2022-12-25T06:29:27.823Z,100892.61
2022-12-25T06:32:34.665Z,100896.80
2022-12-25T06:35:42.769Z,100904.83
2022-12-25T06:38:50.081Z,100905.60
2022-12-25T06:41:59.165Z,100903.98
2022-12-25T06:45:07.044Z,100905.65
2022-12-25T06:48:13.771Z,100910.54
2022-12-25T06:51:21.857Z,100915.61
2022-12-25T06:54:28.759Z,100915.54
2022-12-25T06:57:35.590Z,100914.80
2022-12-25T07:00:42.586Z,100912.61
2022-12-25T07:03:51.163Z,100915.23
2022-12-25T07:07:01.817Z,100912.95
2022-12-25T07:10:12.744Z,100915.02
2022-12-25T07:13:19.569Z,100917.12
2022-12-25T07:16:26.434Z,100919.41
2022-12-25T07:19:33.309Z,100917.05
2022-12-25T07:22:40.020Z,100921.98
2022-12-25T07:25:53.898Z,100917.78
2022-12-25T07:29:00.697Z,100912.27
2022-12-25T07:32:08.259Z,100909.34
2022-12-25T07:35:15.535Z,100915.16
2022-12-25T07:38:22.298Z,100915.11
2022-12-25T07:41:28.983Z,100914.05
2022-12-25T07:44:35.833Z,100912.02
2022-12-25T07:47:42.780Z,100910.06
2022-12-25T07:50:49.458Z,100909.64
2022-12-25T07:53:56.895Z,100911.80
2022-12-25T07:57:03.679Z,100921.85
2022-12-25T08:00:12.781Z,100929.16
2022-12-25T08:03:20.027Z,100938.52
2022-12-25T08:06:35.943Z,100938.00
2022-12-25T08:09:44.562Z,100938.02
2022-12-25T08:12:52.223Z,100944.59
2022-12-25T08:16:04.466Z,100944.98
2022-12-25T08:19:14.561Z,100950.14
2022-12-25T08:22:21.431Z,100954.62
2022-12-25T08:25:28.450Z,100952.95
2022-12-25T08:28:36.679Z,100953.92
2022-12-25T08:31:46.684Z,100956.27
2022-12-25T08:34:55.164Z,100958.48
2022-12-25T08:38:01.982Z,100959.77
2022-12-25T08:41:11.088Z,100965.99
2022-12-25T08:44:17.870Z,100971.80
2022-12-25T08:47:24.766Z,100979.92
2022-12-25T08:50:32.965Z,100984.23
2022-12-25T08:53:39.720Z,100980.31
2022-12-25T08:56:46.325Z,100979.30
2022-12-25T08:59:53.155Z,100982.88
2022-12-25T09:03:00.038Z,100981.33
2022-12-25T09:06:09.827Z,100981.91
2022-12-25T09:09:21.198Z,100978.65
2022-12-25T09:12:28.065Z,100981.84
2022-12-25T09:15:35.072Z,100984.95
2022-12-25T09:18:42.102Z,100992.79
2022-12-25T09:21:50.274Z,100994.02
2022-12-25T09:24:57.272Z,100996.85
2022-12-25T09:28:05.626Z,100998.36
2022-12-25T09:31:12.698Z,100997.79
2022-12-25T09:34:19.957Z,101002.36
2022-12-25T09:37:26.750Z,101008.05
2022-12-25T09:40:34.764Z,100999.60
2022-12-25T09:43:46.422Z,101000.06
2022-12-25T09:46:58.949Z,100993.02
2022-12-25T09:50:13.374Z,100993.60
2022-12-25T09:53:26.730Z,100994.69
2022-12-25T09:56:35.300Z,100994.47
2022-12-25T09:59:43.313Z,100997.79
2022-12-25T10:03:05.621Z,101001.48
2022-12-25T10:06:20.193Z,100991.72
2022-12-25T10:09:42.848Z,100983.25
2022-12-25T10:13:01.499Z,100980.90
2022-12-25T10:16:19.187Z,100974.73
2022-12-25T10:19:41.504Z,100971.85
2022-12-25T10:22:52.862Z,100975.70
2022-12-25T10:25:59.768Z,100975.05
2022-12-25T10:29:14.294Z,100964.70
2022-12-25T10:32:20.995Z,100960.55
2022-12-25T10:35:32.762Z,100961.80
2022-12-25T10:38:39.501Z,100964.24
2022-12-25T10:42:04.316Z,100962.16
2022-12-25T10:45:12.215Z,100959.73
2022-12-25T10:48:26.186Z,100955.48
2022-12-25T10:51:35.375Z,100953.12
2022-12-25T10:54:43.423Z,100951.61
2022-12-25T10:57:50.491Z,100951.17
2022-12-25T11:01:00.471Z,100949.45
2022-12-25T11:04:07.380Z,100952.92
2022-12-25T11:07:25.688Z,100957.40
2022-12-25T11:10:35.627Z,100956.40
2022-12-25T11:13:51.888Z,100959.63
2022-12-25T11:17:15.492Z,100958.35
2022-12-25T11:20:23.805Z,100953.21
2022-12-25T11:23:32.543Z,100955.58
2022-12-25T11:26:49.818Z,100965.54
2022-12-25T11:29:59.679Z,100973.63
2022-12-25T11:33:14.113Z,100972.35
2022-12-25T11:36:25.623Z,100971.56
2022-12-25T11:39:34.233Z,100975.61
2022-12-25T11:42:45.411Z,100975.02
2022-12-25T11:45:57.899Z,100970.63
2022-12-25T11:49:14.951Z,100964.41
2022-12-25T11:52:23.624Z,100957.41
2022-12-25T11:55:36.624Z,100956.35
2022-12-25T11:58:46.483Z,100952.84
2022-12-25T12:01:57.956Z,100953.81
2022-12-25T12:05:16.373Z,100949.61
2022-12-25T12:08:23.150Z,100948.70
2022-12-25T12:11:40.720Z,100940.65
2022-12-25T12:14:53.565Z,100938.27
2022-12-25T12:18:20.347Z,100936.00
2022-12-25T12:21:29.988Z,100939.89
2022-12-25T12:24:42.860Z,100938.63
2022-12-25T12:28:02.831Z,100939.15
2022-12-25T12:31:12.022Z,100938.41
2022-12-25T12:34:26.065Z,100936.49
2022-12-25T12:37:36.861Z,100935.27
2022-12-25T12:40:52.072Z,100935.08
2022-12-25T12:44:04.469Z,100936.91
2022-12-25T12:47:31.421Z,100934.80
2022-12-25T12:50:41.199Z,100929.38
2022-12-25T12:53:50.793Z,100919.30
2022-12-25T12:57:00.741Z,100911.48
2022-12-25T13:00:13.289Z,100906.19
2022-12-25T13:03:33.482Z,100902.91
2022-12-25T13:06:45.017Z,100895.90
2022-12-25T13:10:04.017Z,100894.67
2022-12-25T13:13:17.415Z,100902.38
2022-12-25T13:16:29.298Z,100903.42
2022-12-25T13:19:39.512Z,100904.15
2022-12-25T13:22:52.410Z,100892.75
2022-12-25T13:26:01.657Z,100888.25
2022-12-25T13:29:19.811Z,100889.42
2022-12-25T13:32:29.875Z,100893.16
2022-12-25T13:35:43.659Z,100893.65
2022-12-25T13:38:52.980Z,100898.59
2022-12-25T13:42:10.521Z,100909.05
2022-12-25T13:45:25.952Z,100904.60
2022-12-25T13:48:34.030Z,100892.87
2022-12-25T13:51:40.783Z,100882.03
2022-12-25T13:55:02.633Z,100872.45
2022-12-25T13:58:19.006Z,100871.90
2022-12-25T14:01:26.190Z,100869.86
2022-12-25T14:04:33.097Z,100868.63
2022-12-25T14:07:41.781Z,100867.26
2022-12-25T14:10:52.272Z,100866.27
2022-12-25T14:14:04.866Z,100870.08
2022-12-25T14:17:13.988Z,100871.13
2022-12-25T14:20:29.769Z,100872.66
2022-12-25T14:23:46.598Z,100878.92
2022-12-25T14:27:00.255Z,100883.16
2022-12-25T14:30:13.533Z,100883.80
2022-12-25T14:33:23.791Z,100879.14
2022-12-25T14:36:31.929Z,100887.72
2022-12-25T14:39:39.859Z,100891.65
2022-12-25T14:42:59.309Z,100891.00
2022-12-25T14:46:06.431Z,100896.14
2022-12-25T14:49:26.102Z,100895.92
2022-12-25T14:52:40.502Z,100894.65
2022-12-25T14:55:54.118Z,100883.80
2022-12-25T14:59:03.007Z,100871.20
2022-12-25T15:02:20.210Z,100861.92
2022-12-25T15:05:30.560Z,100867.42
2022-12-25T15:08:37.751Z,100859.56
2022-12-25T15:11:44.410Z,100862.32
2022-12-25T15:14:53.680Z,100862.27
2022-12-25T15:18:02.232Z,100863.19
2022-12-25T15:21:14.273Z,100853.51
2022-12-25T15:24:21.249Z,100853.83
2022-12-25T15:27:28.001Z,100852.60
2022-12-25T15:30:37.120Z,100870.98
2022-12-25T15:33:46.980Z,100881.92
2022-12-25T15:36:53.899Z,100875.99
2022-12-25T15:40:02.196Z,100865.12
2022-12-25T15:43:22.548Z,100873.33
2022-12-25T15:46:37.751Z,100867.98
2022-12-25T15:49:45.144Z,100874.79
2022-12-25T15:52:52.400Z,100886.98
2022-12-25T15:55:59.220Z,100874.02
2022-12-25T15:59:06.080Z,100861.55
2022-12-25T16:02:18.058Z,100845.77
2022-12-25T16:05:25.049Z,100856.98
2022-12-25T16:08:33.146Z,100849.88
2022-12-25T16:11:40.109Z,100845.64
2022-12-25T16:14:48.247Z,100844.98
2022-12-25T16:17:55.112Z,100846.55
2022-12-25T16:21:02.183Z,100842.11
2022-12-25T16:24:09.865Z,100845.30
2022-12-25T16:27:16.829Z,100850.95
2022-12-25T16:30:23.456Z,100842.22
2022-12-25T16:33:30.393Z,100839.04
2022-12-25T16:36:37.697Z,100849.27
2022-12-25T16:39:44.379Z,100839.95
2022-12-25T16:42:51.133Z,100834.26
2022-12-25T16:45:58.439Z,100825.45
2022-12-25T16:49:05.352Z,100828.08
2022-12-25T16:52:12.469Z,100817.02
2022-12-25T16:55:29.596Z,100808.92
2022-12-25T16:58:37.556Z,100806.98
2022-12-25T17:01:44.562Z,100808.30
2022-12-25T17:04:51.677Z,100802.84
2022-12-25T17:07:59.537Z,100798.05
2022-12-25T17:11:08.143Z,100789.05
2022-12-25T17:14:20.084Z,100782.68
2022-12-25T17:17:26.999Z,100778.87
2022-12-25T17:20:33.763Z,100778.94
2022-12-25T17:23:41.360Z,100782.67
2022-12-25T17:26:48.181Z,100770.67
2022-12-25T17:29:54.899Z,100764.10
2022-12-25T17:33:01.616Z,100751.61
2022-12-25T17:36:11.573Z,100757.73
2022-12-25T17:39:18.812Z,100760.77
2022-12-25T17:42:25.556Z,100756.55
2022-12-25T17:45:32.616Z,100757.14
2022-12-25T17:48:39.556Z,100751.89
2022-12-25T17:51:47.129Z,100740.42
2022-12-25T17:54:54.091Z,100740.77
2022-12-25T17:58:00.833Z,100741.15
2022-12-25T18:01:13.562Z,100739.41
2022-12-25T18:04:20.782Z,100734.73
2022-12-25T18:07:27.747Z,100721.05
2022-12-25T18:10:38.690Z,100711.25
2022-12-25T18:13:48.621Z,100711.42
2022-12-25T18:16:55.402Z,100726.80
2022-12-25T18:20:05.456Z,100730.79
2022-12-25T18:23:12.235Z,100719.52
2022-12-25T18:26:19.545Z,100699.11
2022-12-25T18:29:26.337Z,100690.81
2022-12-25T18:32:33.380Z,100690.06
2022-12-25T18:35:43.804Z,100690.64
2022-12-25T18:38:51.741Z,100683.14
2022-12-25T18:42:15.940Z,100677.98
2022-12-25T18:45:23.369Z,100676.44
2022-12-25T18:48:30.604Z,100667.67
2022-12-25T18:51:37.504Z,100656.30
2022-12-25T18:54:44.279Z,100650.72
2022-12-25T18:57:51.237Z,100640.05
2022-12-25T19:00:58.312Z,100633.06
2022-12-25T19:04:12.521Z,100628.77
2022-12-25T19:07:20.167Z,100620.11
2022-12-25T19:10:26.996Z,100623.67
2022-12-25T19:13:35.904Z,100619.19
2022-12-25T19:16:44.219Z,100609.16
2022-12-25T19:19:51.323Z,100600.23
2022-12-25T19:22:58.409Z,100590.14
2022-12-25T19:26:06.687Z,100576.09
2022-12-25T19:29:13.909Z,100574.90
2022-12-25T19:32:21.218Z,100577.44
2022-12-25T19:35:28.253Z,100565.04
2022-12-25T19:38:35.271Z,100553.27
2022-12-25T19:41:42.246Z,100541.02
2022-12-25T19:44:48.779Z,100538.48
2022-12-25T19:47:56.046Z,100530.11
2022-12-25T19:51:04.657Z,100539.00
2022-12-25T19:54:15.997Z,100541.34
2022-12-25T19:57:22.769Z,100538.70
2022-12-25T20:00:29.447Z,100541.75
2022-12-25T20:03:45.735Z,100537.61
2022-12-25T20:06:53.196Z,100534.61
2022-12-25T20:09:59.964Z,100533.48
2022-12-25T20:13:06.803Z,100531.71
2022-12-25T20:16:14.076Z,100527.33
2022-12-25T20:19:20.951Z,100521.72
2022-12-25T20:22:28.028Z,100502.29
2022-12-25T20:25:34.951Z,100494.89
2022-12-25T20:28:43.202Z,100484.98
2022-12-25T20:31:49.963Z,100484.66
2022-12-25T20:34:56.715Z,100491.63
2022-12-25T20:38:06.521Z,100496.02
2022-12-25T20:41:31.690Z,100499.80
2022-12-25T20:44:38.447Z,100497.09
2022-12-25T20:47:47.049Z,100500.26
2022-12-25T20:50:54.335Z,100493.48
2022-12-25T20:54:01.130Z,100500.41
2022-12-25T20:57:08.800Z,100492.65
2022-12-25T21:00:16.892Z,100480.92
2022-12-25T21:03:23.902Z,100478.96
2022-12-25T21:06:30.748Z,100479.59
2022-12-25T21:09:37.605Z,100483.14
2022-12-25T21:12:44.213Z,100480.05
2022-12-25T21:15:53.619Z,100477.17
2022-12-25T21:19:00.211Z,100467.65
2022-12-25T21:22:06.917Z,100468.93
2022-12-25T21:25:13.911Z,100466.07
2022-12-25T21:28:20.756Z,100460.04
2022-12-25T21:31:29.022Z,100458.92
2022-12-25T21:34:36.345Z,100450.22
2022-12-25T21:37:43.195Z,100445.39
2022-12-25T21:40:50.018Z,100444.63
2022-12-25T21:43:57.087Z,100442.86
2022-12-25T21:47:03.955Z,100440.40
2022-12-25T21:50:34.650Z,100434.72
2022-12-25T21:53:44.322Z,100427.90
2022-12-25T21:56:53.931Z,100418.83
2022-12-25T22:00:01.958Z,100404.59
2022-12-25T22:03:08.882Z,100398.09
2022-12-25T22:06:35.414Z,100390.74
2022-12-25T22:09:44.281Z,100367.58
2022-12-25T22:13:09.087Z,100360.56
2022-12-25T22:16:35.057Z,100365.42
2022-12-25T22:19:42.786Z,100365.84
2022-12-25T22:22:50.070Z,100360.44
2022-12-25T22:25:57.019Z,100356.91
2022-12-25T22:29:05.394Z,100353.25
2022-12-25T22:32:13.352Z,100350.96
2022-12-25T22:35:21.173Z,100346.55
2022-12-25T22:38:27.770Z,100333.73
2022-12-25T22:41:34.488Z,100321.34
2022-12-25T22:44:42.058Z,100311.54
2022-12-25T22:47:49.483Z,100304.60
2022-12-25T22:50:56.724Z,100296.57
2022-12-25T22:54:04.024Z,100303.98
2022-12-25T22:57:14.879Z,100309.18
2022-12-25T23:00:21.636Z,100311.02
2022-12-25T23:03:28.547Z,100300.77
2022-12-25T23:06:35.622Z,100299.28
2022-12-25T23:09:42.842Z,100288.41
2022-12-25T23:13:09.322Z,100295.77
2022-12-25T23:16:18.397Z,100290.62
2022-12-25T23:19:43.319Z,100273.84
2022-12-25T23:23:07.884Z,100273.06
2022-12-25T23:26:17.534Z,100257.52
2022-12-25T23:29:39.983Z,100249.70
2022-12-25T23:32:47.012Z,100248.08
2022-12-25T23:35:55.054Z,100224.27
2022-12-25T23:39:09.050Z,100214.39
2022-12-25T23:42:16.799Z,100225.04
2022-12-25T23:45:23.976Z,100219.93
2022-12-25T23:48:30.733Z,100205.42
2022-12-25T23:51:43.381Z,100204.52
2022-12-25T23:54:50.226Z,100206.80
2022-12-25T23:57:56.963Z,100205.55
